createdAt,value
2018-04-19T00:00:40.818Z,4.00
2018-04-19T00:01:40.847Z,4.00
2018-04-19T00:02:40.856Z,4.00
2018-04-19T00:03:40.873Z,4.00
2018-04-19T00:04:40.903Z,4.00
2018-04-19T00:05:40.919Z,4.00
2018-04-19T00:06:40.933Z,4.00
2018-04-19T00:07:40.944Z,4.00
2018-04-19T00:08:40.963Z,4.00
2018-04-19T00:09:40.985Z,4.00
2018-04-19T00:10:40.999Z,4.00
2018-04-19T00:11:41.019Z,4.00
2018-04-19T00:12:41.034Z,4.00
2018-04-19T00:13:41.053Z,4.00
2018-04-19T00:14:41.071Z,4.00
2018-04-19T00:15:41.089Z,4.00
2018-04-19T00:16:41.107Z,4.00
2018-04-19T00:17:41.126Z,4.00
2018-04-19T00:18:41.142Z,4.00
2018-04-19T00:19:41.159Z,4.00
2018-04-19T00:20:41.179Z,4.00
2018-04-19T00:21:41.196Z,4.00
2018-04-19T00:22:41.213Z,4.00
2018-04-19T00:23:41.234Z,4.00
2018-04-19T00:24:41.249Z,4.00
2018-04-19T00:25:41.266Z,4.00
2018-04-19T00:26:41.284Z,4.00
2018-04-19T00:27:41.302Z,4.00
2018-04-19T00:28:41.320Z,4.00
2018-04-19T00:29:41.340Z,4.00
2018-04-19T00:30:41.357Z,4.00
2018-04-19T00:31:41.374Z,4.00
2018-04-19T00:32:41.396Z,4.00
2018-04-19T00:33:41.423Z,4.00
2018-04-19T00:34:41.427Z,4.00
2018-04-19T00:35:41.446Z,4.00
2018-04-19T00:36:41.468Z,4.00
2018-04-19T00:37:41.481Z,4.00
2018-04-19T00:38:41.499Z,4.00
2018-04-19T00:39:41.525Z,4.00
2018-04-19T00:40:41.534Z,4.00
2018-04-19T00:41:41.551Z,4.00
2018-04-19T00:42:41.569Z,4.00
2018-04-19T00:43:41.588Z,4.00
2018-04-19T00:44:41.610Z,4.00
2018-04-19T00:45:41.623Z,4.00
2018-04-19T00:46:41.642Z,4.00
2018-04-19T00:47:41.659Z,4.00
2018-04-19T00:48:41.675Z,4.00
2018-04-19T00:49:41.694Z,4.00
2018-04-19T00:50:41.713Z,4.00
2018-04-19T00:51:41.728Z,4.00
2018-04-19T00:52:41.746Z,4.00
2018-04-19T00:53:41.765Z,4.00
2018-04-19T00:54:41.782Z,4.00
2018-04-19T00:55:41.800Z,4.00
2018-04-19T00:56:41.818Z,4.00
2018-04-19T00:57:41.835Z,4.00
2018-04-19T00:58:41.859Z,4.00
2018-04-19T00:59:41.872Z,4.00
2018-04-19T01:00:41.888Z,4.00
2018-04-19T01:01:41.909Z,4.00
2018-04-19T01:02:41.923Z,4.00
2018-04-19T01:03:41.941Z,4.00
2018-04-19T01:04:41.960Z,4.00
2018-04-19T01:05:41.977Z,4.00
2018-04-19T01:06:42.007Z,4.00
2018-04-19T01:07:42.011Z,4.00
2018-04-19T01:08:42.076Z,4.00
2018-04-19T01:09:42.052Z,4.00
2018-04-19T01:10:42.064Z,4.00
2018-04-19T01:11:42.081Z,4.00
2018-04-19T01:12:42.109Z,4.00
2018-04-19T01:13:42.117Z,4.00
2018-04-19T01:14:42.136Z,4.00
2018-04-19T01:15:42.554Z,4.00
2018-04-19T01:16:42.173Z,4.00
2018-04-19T01:17:42.189Z,4.00
2018-04-19T01:18:42.205Z,4.00
2018-04-19T01:19:42.223Z,4.00
2018-04-19T01:20:42.240Z,4.00
2018-04-19T01:21:42.258Z,4.00
2018-04-19T01:22:42.277Z,4.00
2018-04-19T01:23:42.292Z,4.00
2018-04-19T01:24:42.317Z,4.00
2018-04-19T01:25:42.327Z,4.00
2018-04-19T01:26:42.347Z,4.00
2018-04-19T01:27:42.365Z,4.00
2018-04-19T01:28:42.380Z,4.00
2018-04-19T01:29:42.397Z,4.00
2018-04-19T01:30:42.416Z,4.00
2018-04-19T01:31:42.432Z,4.00
2018-04-19T01:32:42.450Z,4.00
2018-04-19T01:33:42.469Z,4.00
2018-04-19T01:34:42.487Z,4.00
2018-04-19T01:35:42.504Z,4.00
2018-04-19T01:36:42.520Z,4.00
2018-04-19T01:37:42.544Z,4.00
2018-04-19T01:38:42.570Z,4.00
2018-04-19T01:39:42.850Z,4.00
2018-04-19T01:40:42.592Z,4.00
2018-04-19T01:41:42.607Z,4.00
2018-04-19T01:42:42.626Z,4.00
2018-04-19T01:43:42.642Z,4.00
2018-04-19T01:44:42.659Z,4.00
2018-04-19T01:45:42.679Z,4.00
2018-04-19T01:46:42.693Z,4.00
2018-04-19T01:47:42.713Z,4.00
2018-04-19T01:48:42.732Z,4.00
2018-04-19T01:49:42.748Z,4.00
2018-04-19T01:50:42.769Z,4.00
2018-04-19T01:51:42.783Z,4.00
2018-04-19T01:52:42.809Z,4.00
2018-04-19T01:53:42.816Z,4.00
2018-04-19T01:54:42.835Z,4.00
2018-04-19T01:55:42.851Z,4.00
2018-04-19T01:56:42.871Z,4.00
2018-04-19T01:57:42.886Z,4.00
2018-04-19T01:58:42.907Z,4.00
2018-04-19T01:59:42.921Z,4.00
2018-04-19T02:00:42.950Z,4.00
2018-04-19T02:01:42.957Z,4.00
2018-04-19T02:02:42.973Z,4.00
2018-04-19T02:03:42.991Z,4.00
2018-04-19T02:04:43.009Z,4.00
2018-04-19T02:05:43.030Z,4.00
2018-04-19T02:06:43.043Z,4.00
2018-04-19T02:07:43.060Z,4.00
2018-04-19T02:08:43.078Z,4.00
2018-04-19T02:09:43.096Z,4.00
2018-04-19T02:10:43.113Z,4.00
2018-04-19T02:11:43.156Z,4.00
2018-04-19T02:12:43.149Z,4.00
2018-04-19T02:13:43.164Z,4.00
2018-04-19T02:14:43.277Z,4.00
2018-04-19T02:15:43.201Z,4.00
2018-04-19T02:16:43.301Z,4.00
2018-04-19T02:17:43.237Z,4.00
2018-04-19T02:18:43.251Z,4.00
2018-04-19T02:19:43.268Z,4.00
2018-04-19T02:20:43.286Z,4.00
2018-04-19T02:21:43.302Z,4.00
2018-04-19T02:22:43.322Z,4.00
2018-04-19T02:23:43.337Z,4.00
2018-04-19T02:24:43.354Z,4.00
2018-04-19T02:25:43.372Z,4.00
2018-04-19T02:26:43.395Z,4.00
2018-04-19T02:27:43.406Z,4.00
2018-04-19T02:28:43.423Z,4.00
2018-04-19T02:29:43.441Z,4.00
2018-04-19T02:30:43.462Z,4.00
2018-04-19T02:31:43.476Z,4.00
2018-04-19T02:32:43.493Z,4.00
2018-04-19T02:33:43.511Z,4.00
2018-04-19T02:34:43.529Z,4.00
2018-04-19T02:35:43.551Z,4.00
2018-04-19T02:36:43.568Z,4.00
2018-04-19T02:37:43.587Z,4.00
2018-04-19T02:38:43.598Z,4.00
2018-04-19T02:39:43.620Z,4.00
2018-04-19T02:40:43.633Z,4.00
2018-04-19T02:41:43.650Z,4.00
2018-04-19T02:42:43.666Z,4.00
2018-04-19T02:43:43.687Z,4.00
2018-04-19T02:44:43.708Z,4.00
2018-04-19T02:45:43.719Z,4.00
2018-04-19T02:46:43.734Z,4.00
2018-04-19T02:47:43.753Z,4.00
2018-04-19T02:48:43.771Z,4.00
2018-04-19T02:49:43.788Z,4.00
2018-04-19T02:50:43.809Z,4.00
2018-04-19T02:51:43.838Z,4.00
2018-04-19T02:52:43.842Z,4.00
2018-04-19T02:53:43.858Z,4.00
2018-04-19T02:54:43.874Z,4.00
2018-04-19T02:55:43.890Z,4.00
2018-04-19T02:56:43.914Z,4.00
2018-04-19T02:57:43.927Z,4.00
2018-04-19T02:58:43.941Z,4.00
2018-04-19T02:59:43.959Z,4.00
2018-04-19T03:00:43.982Z,4.00
2018-04-19T03:01:43.994Z,4.00
2018-04-19T03:02:44.012Z,4.00
2018-04-19T03:03:44.031Z,4.00
2018-04-19T03:04:44.048Z,4.00
2018-04-19T03:05:44.063Z,4.00
2018-04-19T03:06:44.078Z,4.00
2018-04-19T03:07:44.098Z,4.00
2018-04-19T03:08:44.112Z,4.00
2018-04-19T03:09:44.135Z,4.00
2018-04-19T03:10:44.147Z,4.00
2018-04-19T03:11:44.163Z,4.00
2018-04-19T03:12:44.230Z,4.00
2018-04-19T03:13:44.197Z,4.00
2018-04-19T03:14:44.223Z,4.00
2018-04-19T03:15:44.231Z,4.00
2018-04-19T03:16:44.248Z,4.00
2018-04-19T03:17:44.270Z,4.00
2018-04-19T03:18:44.284Z,4.00
2018-04-19T03:19:44.300Z,4.00
2018-04-19T03:20:44.318Z,4.00
2018-04-19T03:21:44.334Z,4.00
2018-04-19T03:22:44.353Z,4.00
2018-04-19T03:23:44.368Z,4.00
2018-04-19T03:24:44.385Z,4.00
2018-04-19T03:25:44.407Z,4.00
2018-04-19T03:26:44.426Z,4.00
2018-04-19T03:27:44.516Z,4.00
2018-04-19T03:28:44.829Z,4.00
2018-04-19T03:29:44.475Z,4.00
2018-04-19T03:30:44.497Z,4.00
2018-04-19T03:31:44.507Z,4.00
2018-04-19T03:32:44.522Z,4.00
2018-04-19T03:33:44.539Z,4.00
2018-04-19T03:34:44.556Z,4.00
2018-04-19T03:35:44.572Z,4.00
2018-04-19T03:36:44.594Z,4.00
2018-04-19T03:37:44.611Z,4.00
2018-04-19T03:38:44.624Z,4.00
2018-04-19T03:39:44.640Z,4.00
2018-04-19T03:40:44.726Z,4.00
2018-04-19T03:41:44.677Z,4.00
2018-04-19T03:42:44.694Z,4.00
2018-04-19T03:43:44.714Z,4.00
2018-04-19T03:44:44.727Z,4.00
2018-04-19T03:45:44.744Z,4.00
2018-04-19T03:46:44.761Z,4.00
2018-04-19T03:47:44.778Z,4.00
2018-04-19T03:48:44.797Z,4.00
2018-04-19T03:49:44.815Z,4.00
2018-04-19T03:50:44.861Z,4.00
2018-04-19T03:51:44.845Z,4.00
2018-04-19T03:52:44.863Z,4.00
2018-04-19T03:53:44.885Z,0.00
2018-04-19T03:54:44.908Z,4.00
2018-04-19T03:55:44.918Z,4.00
2018-04-19T03:56:44.933Z,4.00
2018-04-19T03:57:44.950Z,4.00
2018-04-19T03:58:44.965Z,4.00
2018-04-19T03:59:44.982Z,4.00
2018-04-19T04:00:45.054Z,4.00
2018-04-19T04:01:45.398Z,8.00
2018-04-19T04:02:45.034Z,4.00
2018-04-19T04:03:45.048Z,8.00
2018-04-19T04:04:45.066Z,8.00
2018-04-19T04:05:45.094Z,4.00
2018-04-19T04:06:45.099Z,8.00
2018-04-19T04:07:45.117Z,8.00
2018-04-19T04:08:45.152Z,12.00
2018-04-19T04:09:45.150Z,12.00
2018-04-19T04:10:45.169Z,16.00
2018-04-19T04:11:45.185Z,16.00
2018-04-19T04:12:45.204Z,20.00
2018-04-19T04:13:45.219Z,20.00
2018-04-19T04:14:45.235Z,20.00
2018-04-19T04:15:45.251Z,28.00
2018-04-19T04:16:45.272Z,32.00
2018-04-19T04:17:45.289Z,32.00
2018-04-19T04:18:45.300Z,36.00
2018-04-19T04:19:45.318Z,40.00
2018-04-19T04:20:45.336Z,48.00
2018-04-19T04:21:45.364Z,56.00
2018-04-19T04:22:45.387Z,60.00
2018-04-19T04:23:45.391Z,64.00
2018-04-19T04:24:45.404Z,72.00
2018-04-19T04:25:45.422Z,80.00
2018-04-19T04:26:45.441Z,84.00
2018-04-19T04:27:45.452Z,92.00
2018-04-19T04:28:45.471Z,100.00
2018-04-19T04:29:45.488Z,112.00
2018-04-19T04:30:45.506Z,120.00
2018-04-19T04:31:45.572Z,132.00
2018-04-19T04:32:45.548Z,140.00
2018-04-19T04:33:46.434Z,152.00
2018-04-19T04:34:45.572Z,160.00
2018-04-19T04:35:45.720Z,172.00
2018-04-19T04:36:46.030Z,184.00
2018-04-19T04:37:45.811Z,192.00
2018-04-19T04:38:45.938Z,208.00
2018-04-19T04:39:45.656Z,216.00
2018-04-19T04:40:45.826Z,228.00
2018-04-19T04:41:45.863Z,240.00
2018-04-19T04:42:45.717Z,256.00
2018-04-19T04:43:45.725Z,268.00
2018-04-19T04:44:45.741Z,284.00
2018-04-19T04:45:45.756Z,296.00
2018-04-19T04:46:45.784Z,308.00
2018-04-19T04:47:45.845Z,320.00
2018-04-19T04:48:45.867Z,336.00
2018-04-19T04:49:45.822Z,348.00
2018-04-19T04:50:45.843Z,364.00
2018-04-19T04:51:45.857Z,380.00
2018-04-19T04:52:45.872Z,396.00
2018-04-19T04:53:45.896Z,408.00
2018-04-19T04:54:45.933Z,420.00
2018-04-19T04:55:45.935Z,432.00
2018-04-19T04:56:45.962Z,448.00
2018-04-19T04:57:45.958Z,468.00
2018-04-19T04:58:45.975Z,484.00
2018-04-19T04:59:45.992Z,500.00
2018-04-19T05:00:46.022Z,516.00
2018-04-19T05:01:46.024Z,532.00
2018-04-19T05:02:46.043Z,548.00
2018-04-19T05:03:46.056Z,564.00
2018-04-19T05:04:46.082Z,576.00
2018-04-19T05:05:46.116Z,592.00
2018-04-19T05:06:46.183Z,608.00
2018-04-19T05:07:46.137Z,628.00
2018-04-19T05:08:46.144Z,640.00
2018-04-19T05:09:46.280Z,656.00
2018-04-19T05:10:46.180Z,672.00
2018-04-19T05:11:46.192Z,688.00
2018-04-19T05:12:46.207Z,700.00
2018-04-19T05:13:46.224Z,712.00
2018-04-19T05:14:46.246Z,732.00
2018-04-19T05:15:46.263Z,756.00
2018-04-19T05:16:46.275Z,768.00
2018-04-19T05:17:46.308Z,776.00
2018-04-19T05:18:46.309Z,796.00
2018-04-19T05:19:46.326Z,820.00
2018-04-19T05:20:46.370Z,828.00
2018-04-19T05:21:46.359Z,840.00
2018-04-19T05:22:46.439Z,872.00
2018-04-19T05:23:46.393Z,896.00
2018-04-19T05:24:46.408Z,912.00
2018-04-19T05:25:46.492Z,928.00
2018-04-19T05:26:46.459Z,944.00
2018-04-19T05:27:46.495Z,956.00
2018-04-19T05:28:46.490Z,972.00
2018-04-19T05:29:46.759Z,992.00
2018-04-19T05:30:46.511Z,1004.00
2018-04-19T05:31:46.681Z,1012.00
2018-04-19T05:32:46.664Z,1032.00
2018-04-19T05:33:46.566Z,1052.00
2018-04-19T05:34:46.582Z,1064.00
2018-04-19T05:35:47.164Z,1064.00
2018-04-19T05:36:46.611Z,1064.00
2018-04-19T05:37:46.630Z,1112.00
2018-04-19T05:38:46.657Z,1144.00
2018-04-19T05:39:46.660Z,1160.00
2018-04-19T05:40:46.843Z,1164.00
2018-04-19T05:41:47.318Z,1192.00
2018-04-19T05:42:46.721Z,1220.00
2018-04-19T05:43:46.736Z,1236.00
2018-04-19T05:44:46.933Z,1248.00
2018-04-19T05:45:46.766Z,1308.00
2018-04-19T05:46:46.861Z,1460.00
2018-04-19T05:47:46.795Z,1400.00
2018-04-19T05:48:46.814Z,1404.00
2018-04-19T05:49:46.832Z,1416.00
2018-04-19T05:50:46.849Z,1384.00
2018-04-19T05:51:47.100Z,1404.00
2018-04-19T05:52:46.986Z,1416.00
2018-04-19T05:53:46.915Z,1432.00
2018-04-19T05:54:46.959Z,1452.00
2018-04-19T05:55:47.037Z,1468.00
2018-04-19T05:56:47.074Z,1488.00
2018-04-19T05:57:46.982Z,1500.00
2018-04-19T05:58:46.996Z,1520.00
2018-04-19T05:59:47.113Z,1536.00
2018-04-19T06:00:47.048Z,1556.00
2018-04-19T06:01:47.034Z,1572.00
2018-04-19T06:02:47.059Z,1612.00
2018-04-19T06:03:47.221Z,1668.00
2018-04-19T06:04:47.090Z,1700.00
2018-04-19T06:05:47.103Z,1792.00
2018-04-19T06:06:47.117Z,2080.00
2018-04-19T06:07:47.140Z,2384.00
2018-04-19T06:08:47.154Z,2048.00
2018-04-19T06:09:47.172Z,1836.00
2018-04-19T06:10:47.187Z,1704.00
2018-04-19T06:11:47.209Z,1712.00
2018-04-19T06:12:47.221Z,1724.00
2018-04-19T06:13:47.293Z,1720.00
2018-04-19T06:14:47.256Z,1736.00
2018-04-19T06:15:47.595Z,1760.00
2018-04-19T06:16:47.307Z,1768.00
2018-04-19T06:17:47.320Z,1780.00
2018-04-19T06:18:47.329Z,1792.00
2018-04-19T06:19:47.656Z,1804.00
2018-04-19T06:20:47.368Z,1816.00
2018-04-19T06:21:47.374Z,1832.00
2018-04-19T06:22:47.403Z,1848.00
2018-04-19T06:23:47.407Z,1864.00
2018-04-19T06:24:47.518Z,1880.00
2018-04-19T06:25:47.447Z,1904.00
2018-04-19T06:26:47.795Z,1936.00
2018-04-19T06:27:47.485Z,1932.00
2018-04-19T06:28:49.801Z,2180.00
2018-04-19T06:29:50.708Z,2324.00
2018-04-19T06:30:47.678Z,2056.00
2018-04-19T06:31:47.546Z,1976.00
2018-04-19T06:33:49.120Z,2004.00
2018-04-19T06:34:47.963Z,2020.00
2018-04-19T06:35:47.611Z,2028.00
2018-04-19T06:37:47.646Z,2060.00
2018-04-19T06:38:47.662Z,2072.00
2018-04-19T06:39:50.298Z,2088.00
2018-04-19T06:40:47.699Z,2104.00
2018-04-19T06:42:48.640Z,2128.00
2018-04-19T06:43:49.845Z,2144.00
2018-04-19T06:44:47.767Z,2156.00
2018-04-19T06:45:47.786Z,2172.00
2018-04-19T06:46:47.800Z,2184.00
2018-04-19T06:47:47.831Z,2196.00
2018-04-19T06:48:47.835Z,2208.00
2018-04-19T06:50:47.873Z,2228.00
2018-04-19T06:51:47.889Z,2240.00
2018-04-19T06:52:47.955Z,2252.00
2018-04-19T06:53:50.154Z,2264.00
2018-04-19T06:54:47.941Z,2284.00
2018-04-19T06:55:47.962Z,2300.00
2018-04-19T06:56:47.983Z,2308.00
2018-04-19T06:57:48.245Z,2324.00
2018-04-19T06:58:48.012Z,2328.00
2018-04-19T06:59:48.026Z,2344.00
2018-04-19T07:00:48.049Z,2340.00
2018-04-19T07:01:48.099Z,2360.00
2018-04-19T07:02:48.080Z,2364.00
2018-04-19T07:03:48.097Z,2388.00
2018-04-19T07:04:48.114Z,2396.00
2018-04-19T07:05:48.131Z,2408.00
2018-04-19T07:06:48.149Z,2420.00
2018-04-19T07:07:48.166Z,2432.00
2018-04-19T07:08:48.184Z,2428.00
2018-04-19T07:09:48.207Z,2440.00
2018-04-19T07:10:48.227Z,2456.00
2018-04-19T07:11:48.236Z,2476.00
2018-04-19T07:12:48.257Z,2488.00
2018-04-19T07:13:48.283Z,2500.00
2018-04-19T07:14:48.291Z,2516.00
2018-04-19T07:15:48.311Z,2536.00
2018-04-19T07:16:48.666Z,2552.00
2018-04-19T07:17:48.375Z,2556.00
2018-04-19T07:18:48.363Z,2576.00
2018-04-19T07:19:48.385Z,2588.00
2018-04-19T07:21:48.421Z,2612.00
2018-04-19T07:22:48.434Z,2624.00
2018-04-19T07:23:48.855Z,2628.00
2018-04-19T07:24:48.790Z,2640.00
2018-04-19T07:25:48.531Z,2656.00
2018-04-19T07:26:48.505Z,2672.00
2018-04-19T07:27:48.520Z,2680.00
2018-04-19T07:28:48.595Z,2688.00
2018-04-19T07:29:51.953Z,2700.00
2018-04-19T07:30:50.162Z,2716.00
2018-04-19T07:31:49.668Z,2728.00
2018-04-19T07:32:50.176Z,2740.00
2018-04-19T07:33:50.171Z,2756.00
2018-04-19T07:34:50.478Z,2768.00
2018-04-19T07:35:50.791Z,2792.00
2018-04-19T07:36:49.856Z,2796.00
2018-04-19T07:37:50.894Z,2816.00
2018-04-19T07:38:50.274Z,2824.00
2018-04-19T07:39:50.412Z,2840.00
2018-04-19T07:40:51.305Z,2848.00
2018-04-19T07:41:50.315Z,2868.00
2018-04-19T07:42:51.459Z,2884.00
2018-04-19T07:43:50.150Z,2892.00
2018-04-19T07:44:50.419Z,2840.00
2018-04-19T07:45:50.116Z,2900.00
2018-04-19T07:46:50.054Z,2932.00
2018-04-19T07:47:50.080Z,2948.00
2018-04-19T07:48:50.130Z,2964.00
2018-04-19T07:49:50.519Z,2972.00
2018-04-19T07:50:51.271Z,2976.00
2018-04-19T07:51:50.430Z,2992.00
2018-04-19T07:52:50.733Z,3008.00
2018-04-19T07:53:49.870Z,3024.00
2018-04-19T07:54:49.037Z,3032.00
2018-04-19T07:55:49.060Z,3044.00
2018-04-19T07:56:51.068Z,3052.00
2018-04-19T07:58:50.567Z,3076.00
2018-04-19T07:59:50.764Z,3084.00
2018-04-19T08:00:51.104Z,3092.00
2018-04-19T08:01:50.703Z,3100.00
2018-04-19T08:02:51.415Z,3108.00
2018-04-19T08:03:51.697Z,3108.00
2018-04-19T08:04:51.484Z,3128.00
2018-04-19T08:05:52.241Z,3136.00
2018-04-19T08:06:52.578Z,3136.00
2018-04-19T08:07:51.656Z,3148.00
2018-04-19T08:09:51.092Z,3164.00
2018-04-19T08:10:51.353Z,3172.00
2018-04-19T08:11:50.764Z,3176.00
2018-04-19T08:12:50.793Z,3176.00
2018-04-19T08:13:50.620Z,3184.00
2018-04-19T08:14:52.053Z,3200.00
2018-04-19T08:15:51.259Z,3208.00
2018-04-19T08:16:51.921Z,3212.00
2018-04-19T08:17:51.436Z,3208.00
2018-04-19T08:18:52.369Z,3216.00
2018-04-19T08:19:52.601Z,3224.00
2018-04-19T08:20:49.509Z,3228.00
2018-04-19T08:21:51.339Z,3248.00
2018-04-19T08:22:50.063Z,3248.00
2018-04-19T08:23:51.384Z,3256.00
2018-04-19T08:24:51.817Z,3264.00
2018-04-19T08:25:52.027Z,3264.00
2018-04-19T08:26:50.599Z,3280.00
2018-04-19T08:27:51.056Z,3288.00
2018-04-19T08:28:51.320Z,3288.00
2018-04-19T08:29:51.665Z,3572.00
2018-04-19T08:30:50.348Z,3312.00
2018-04-19T08:31:50.601Z,3320.00
2018-04-19T08:32:52.393Z,3320.00
2018-04-19T08:33:51.902Z,3336.00
2018-04-19T08:34:51.601Z,3344.00
2018-04-19T08:35:51.201Z,3392.00
2018-04-19T08:36:50.773Z,3388.00
2018-04-19T08:37:51.348Z,3416.00
2018-04-19T08:38:52.104Z,3424.00
2018-04-19T08:39:52.416Z,3436.00
2018-04-19T08:41:51.510Z,3452.00
2018-04-19T08:42:52.190Z,3468.00
2018-04-19T08:43:51.591Z,3480.00
2018-04-19T08:44:51.504Z,3480.00
2018-04-19T08:45:51.070Z,3492.00
2018-04-19T08:46:51.687Z,3488.00
2018-04-19T08:47:51.796Z,3540.00
2018-04-19T08:48:51.297Z,3528.00
2018-04-19T08:49:51.657Z,3516.00
2018-04-19T08:50:52.143Z,3528.00
2018-04-19T08:51:51.320Z,3536.00
2018-04-19T08:52:51.727Z,3592.00
2018-04-19T08:53:53.225Z,3560.00
2018-04-19T08:54:52.789Z,3568.00
2018-04-19T08:55:51.657Z,3572.00
2018-04-19T08:56:50.181Z,3648.00
2018-04-19T08:57:50.206Z,3624.00
2018-04-19T08:58:50.199Z,3640.00
2018-04-19T08:59:50.217Z,3760.00
2018-04-19T09:00:50.235Z,3676.00
2018-04-19T09:01:50.287Z,3596.00
2018-04-19T09:02:50.372Z,3592.00
2018-04-19T09:03:50.294Z,3600.00
2018-04-19T09:04:50.445Z,3576.00
2018-04-19T09:05:50.332Z,3604.00
2018-04-19T09:06:50.462Z,3640.00
2018-04-19T09:07:50.372Z,3616.00
2018-04-19T09:08:50.397Z,3652.00
2018-04-19T09:09:50.432Z,3668.00
2018-04-19T09:10:50.428Z,3672.00
2018-04-19T09:11:50.446Z,3672.00
2018-04-19T09:12:52.760Z,3704.00
2018-04-19T09:13:51.142Z,3712.00
2018-04-19T09:14:50.563Z,3724.00
2018-04-19T09:15:50.754Z,3728.00
2018-04-19T09:16:50.545Z,3740.00
2018-04-19T09:17:50.567Z,3748.00
2018-04-19T09:18:50.581Z,3748.00
2018-04-19T09:19:50.617Z,3752.00
2018-04-19T09:20:50.621Z,3776.00
2018-04-19T09:21:51.590Z,3780.00
2018-04-19T09:22:50.661Z,3784.00
2018-04-19T09:23:50.784Z,3780.00
2018-04-19T09:24:51.933Z,3784.00
2018-04-19T09:25:50.727Z,3800.00
2018-04-19T09:26:51.606Z,3796.00
2018-04-19T09:27:50.771Z,3800.00
2018-04-19T09:28:50.777Z,3816.00
2018-04-19T09:30:50.830Z,3820.00
2018-04-19T09:31:50.848Z,3844.00
2018-04-19T09:32:50.856Z,3828.00
2018-04-19T09:33:50.878Z,3828.00
2018-04-19T09:34:52.273Z,3848.00
2018-04-19T09:35:50.945Z,4124.00
2018-04-19T09:36:50.943Z,3856.00
2018-04-19T09:37:50.955Z,3864.00
2018-04-19T09:38:50.992Z,3840.00
2018-04-19T09:39:50.995Z,4044.00
2018-04-19T09:40:51.022Z,3820.00
2018-04-19T09:41:51.060Z,3836.00
2018-04-19T09:42:51.215Z,3852.00
2018-04-19T09:43:51.072Z,3888.00
2018-04-19T09:44:51.102Z,3904.00
2018-04-19T09:45:51.524Z,3912.00
2018-04-19T09:46:51.150Z,3872.00
2018-04-19T09:47:51.158Z,3896.00
2018-04-19T09:48:51.184Z,3924.00
2018-04-19T09:49:51.198Z,3900.00
2018-04-19T09:50:51.275Z,3940.00
2018-04-19T09:51:51.272Z,3936.00
2018-04-19T09:52:51.268Z,3912.00
2018-04-19T09:53:51.320Z,3956.00
2018-04-19T09:54:51.466Z,3960.00
2018-04-19T09:55:51.352Z,3976.00
2018-04-19T09:56:51.524Z,3956.00
2018-04-19T09:57:51.814Z,3952.00
2018-04-19T09:58:51.385Z,3976.00
2018-04-19T09:59:51.400Z,3928.00
2018-04-19T10:00:51.432Z,3976.00
2018-04-19T10:01:51.556Z,3964.00
2018-04-19T10:02:51.459Z,3940.00
2018-04-19T10:03:52.423Z,3992.00
2018-04-19T10:04:51.498Z,3792.00
2018-04-19T10:05:51.518Z,3952.00
2018-04-19T10:06:51.543Z,3896.00
2018-04-19T10:07:51.557Z,3976.00
2018-04-19T10:08:51.585Z,3996.00
2018-04-19T10:09:51.600Z,3988.00
2018-04-19T10:10:51.619Z,3992.00
2018-04-19T10:11:51.643Z,4000.00
2018-04-19T10:12:51.669Z,4016.00
2018-04-19T10:13:51.681Z,4036.00
2018-04-19T10:14:51.912Z,4028.00
2018-04-19T10:15:51.918Z,4072.00
2018-04-19T10:16:51.980Z,4096.00
2018-04-19T10:17:51.766Z,4116.00
2018-04-19T10:18:51.786Z,4164.00
2018-04-19T10:19:51.806Z,4184.00
2018-04-19T10:20:51.825Z,4132.00
2018-04-19T10:21:51.848Z,4080.00
2018-04-19T10:22:51.871Z,4116.00
2018-04-19T10:23:52.256Z,4084.00
2018-04-19T10:24:53.121Z,4032.00
2018-04-19T10:25:52.039Z,3964.00
2018-04-19T10:26:51.968Z,3940.00
2018-04-19T10:27:51.970Z,3928.00
2018-04-19T10:28:51.999Z,3904.00
2018-04-19T10:29:52.016Z,3884.00
2018-04-19T10:30:52.034Z,3888.00
2018-04-19T10:31:52.055Z,3896.00
2018-04-19T10:32:52.287Z,3392.00
2018-04-19T10:33:52.111Z,3924.00
2018-04-19T10:34:52.131Z,3936.00
2018-04-19T10:35:52.157Z,3924.00
2018-04-19T10:36:52.165Z,3892.00
2018-04-19T10:37:52.181Z,3916.00
2018-04-19T10:38:52.201Z,3900.00
2018-04-19T10:39:52.224Z,3900.00
2018-04-19T10:40:52.242Z,3468.00
2018-04-19T10:41:52.273Z,3916.00
2018-04-19T10:42:52.283Z,3924.00
2018-04-19T10:43:52.307Z,3916.00
2018-04-19T10:44:52.352Z,3908.00
2018-04-19T10:45:52.351Z,3896.00
2018-04-19T10:46:52.369Z,3896.00
2018-04-19T10:47:52.389Z,3880.00
2018-04-19T10:48:52.417Z,3872.00
2018-04-19T10:49:52.519Z,3868.00
2018-04-19T10:50:52.973Z,3892.00
2018-04-19T10:51:52.488Z,3924.00
2018-04-19T10:52:52.501Z,3924.00
2018-04-19T10:53:52.592Z,3912.00
2018-04-19T10:54:53.020Z,3904.00
2018-04-19T10:55:52.576Z,3908.00
2018-04-19T10:56:52.612Z,3896.00
2018-04-19T10:57:52.604Z,3880.00
2018-04-19T10:58:52.630Z,3884.00
2018-04-19T10:59:52.643Z,3880.00
2018-04-19T11:00:54.049Z,3856.00
2018-04-19T11:01:53.392Z,3808.00
2018-04-19T11:02:52.828Z,3812.00
2018-04-19T11:03:53.581Z,3892.00
2018-04-19T11:05:52.787Z,3892.00
2018-04-19T11:06:52.811Z,3872.00
2018-04-19T11:07:52.826Z,3852.00
2018-04-19T11:08:52.835Z,3852.00
2018-04-19T11:09:52.859Z,3868.00
2018-04-19T11:10:53.212Z,3892.00
2018-04-19T11:11:52.902Z,3904.00
2018-04-19T11:13:52.952Z,3928.00
2018-04-19T11:14:52.971Z,3928.00
2018-04-19T11:15:53.004Z,3896.00
2018-04-19T11:16:53.610Z,3916.00
2018-04-19T11:17:53.033Z,3916.00
2018-04-19T11:18:53.259Z,3916.00
2018-04-19T11:19:53.070Z,3888.00
2018-04-19T11:20:53.095Z,3924.00
2018-04-19T11:21:53.114Z,3976.00
2018-04-19T11:22:53.186Z,3972.00
2018-04-19T11:23:54.007Z,3992.00
2018-04-19T11:24:55.510Z,3992.00
2018-04-19T11:25:53.228Z,4036.00
2018-04-19T11:26:53.222Z,4052.00
2018-04-19T11:27:53.244Z,4048.00
2018-04-19T11:28:53.263Z,3952.00
2018-04-19T11:29:53.300Z,3976.00
2018-04-19T11:30:53.307Z,3940.00
2018-04-19T11:31:53.335Z,3880.00
2018-04-19T11:32:53.358Z,3928.00
2018-04-19T11:33:53.374Z,3900.00
2018-04-19T11:34:53.402Z,3680.00
2018-04-19T11:35:53.433Z,3880.00
2018-04-19T11:36:53.454Z,3872.00
2018-04-19T11:37:53.460Z,3808.00
2018-04-19T11:38:53.484Z,3600.00
2018-04-19T11:39:53.521Z,3528.00
2018-04-19T11:40:53.527Z,3472.00
2018-04-19T11:41:53.547Z,3364.00
2018-04-19T11:42:53.576Z,3224.00
2018-04-19T11:43:53.591Z,3576.00
2018-04-19T11:44:53.613Z,3580.00
2018-04-19T11:45:53.740Z,3424.00
2018-04-19T11:46:53.657Z,3476.00
2018-04-19T11:47:53.981Z,3560.00
2018-04-19T11:48:53.699Z,3592.00
2018-04-19T11:49:53.722Z,3680.00
2018-04-19T11:50:53.758Z,3744.00
2018-04-19T11:51:53.763Z,3756.00
2018-04-19T11:52:53.843Z,3756.00
2018-04-19T11:53:53.823Z,3748.00
2018-04-19T11:54:53.879Z,3964.00
2018-04-19T11:55:53.855Z,3980.00
2018-04-19T11:56:53.884Z,3952.00
2018-04-19T11:57:53.893Z,4088.00
2018-04-19T11:58:53.919Z,4136.00
2018-04-19T11:59:53.943Z,4160.00
2018-04-19T12:00:53.999Z,4240.00
2018-04-19T12:01:54.100Z,4296.00
2018-04-19T12:02:54.005Z,4328.00
2018-04-19T12:03:54.025Z,4292.00
2018-04-19T12:04:54.057Z,4292.00
2018-04-19T12:05:54.137Z,4308.00
2018-04-19T12:06:54.096Z,4336.00
2018-04-19T12:07:54.421Z,4364.00
2018-04-19T12:08:54.136Z,4424.00
2018-04-19T12:09:54.170Z,4460.00
2018-04-19T12:10:57.361Z,4472.00
2018-04-19T12:11:54.207Z,4552.00
2018-04-19T12:12:54.238Z,4572.00
2018-04-19T12:13:54.306Z,4620.00
2018-04-19T12:15:54.309Z,4612.00
2018-04-19T12:16:54.645Z,4600.00
2018-04-19T12:18:55.217Z,4532.00
2018-04-19T12:19:54.411Z,4356.00
2018-04-19T12:20:54.403Z,4172.00
2018-04-19T12:21:54.465Z,3768.00
2018-04-19T12:22:54.732Z,5404.00
2018-04-19T12:23:54.487Z,6844.00
2018-04-19T12:24:54.489Z,6952.00
2018-04-19T12:25:54.518Z,6636.00
2018-04-19T12:26:54.533Z,6036.00
2018-04-19T12:27:54.565Z,5380.00
2018-04-19T12:28:54.573Z,4876.00
2018-04-19T12:29:54.600Z,4908.00
2018-04-19T12:30:54.617Z,5008.00
2018-04-19T12:31:54.651Z,4936.00
2018-04-19T12:32:54.664Z,4500.00
2018-04-19T12:33:54.689Z,5116.00
2018-04-19T12:34:54.716Z,5128.00
2018-04-19T12:35:54.735Z,5196.00
2018-04-19T12:36:54.862Z,5284.00
2018-04-19T12:37:54.779Z,5308.00
2018-04-19T12:38:54.802Z,5172.00
2018-04-19T12:39:56.606Z,4760.00
2018-04-19T12:40:54.847Z,4888.00
2018-04-19T12:41:54.868Z,4876.00
2018-04-19T12:42:54.892Z,4652.00
2018-04-19T12:43:54.916Z,4472.00
2018-04-19T12:44:54.946Z,4572.00